Time;durP1;ratioP1;P1;durP2;ratioP2;P2;SDS_P1;SDS_P2;PMS_P1;PMS_P2;Temp;Humidity;BMP_temperature;BMP_pressure;BME280_temperature;BME280_humidity;BME280_pressure;Samples;Min_cycle;Max_cycle;Signal;HPM_P1;HPM_P2
2022/08/24 00:01:39;;;;;;;1.23;1.23;;;;;;;;;;5082209;28;20470;-59
2022/08/24 00:04:26;;;;;;;1.60;1.50;;;;;;;;;;5059675;28;20214;-59
2022/08/24 00:07:15;;;;;;;1.50;1.40;;;;;;;;;;5065163;28;20226;-58
2022/08/24 00:10:05;;;;;;;1.37;1.37;;;;;;;;;;5084019;28;20288;-59
2022/08/24 00:12:52;;;;;;;1.47;1.47;;;;;;;;;;5088483;28;20216;-60
2022/08/24 00:15:40;;;;;;;1.53;1.43;;;;;;;;;;5079183;28;20231;-59
2022/08/24 00:18:27;;;;;;;1.50;1.50;;;;;;;;;;5078135;28;20204;-59
2022/08/24 00:21:15;;;;;;;1.60;1.50;;;;;;;;;;5062999;28;20210;-58
2022/08/24 00:24:04;;;;;;;1.50;1.40;;;;;;;;;;5062081;28;20297;-59
2022/08/24 00:26:51;;;;;;;1.43;1.33;;;;;;;;;;5061843;28;20725;-59
2022/08/24 00:29:39;;;;;;;1.13;1.13;;;;;;;;;;5059086;28;20613;-59
2022/08/24 00:32:28;;;;;;;1.80;1.30;;;;;;;;;;5081151;28;20213;-59
2022/08/24 00:35:18;;;;;;;1.30;1.30;;;;;;;;;;5080710;28;20246;-59
2022/08/24 00:38:05;;;;;;;1.20;1.20;;;;;;;;;;5083200;28;20408;-58
2022/08/24 00:40:53;;;;;;;1.43;1.33;;;;;;;;;;5083748;28;20288;-59
2022/08/24 00:43:53;;;;;;;1.30;1.30;;;;;;;;;;5081806;28;20552;-59
2022/08/24 00:46:45;;;;;;;1.20;1.10;;;;;;;;;;5081347;28;20746;-59
2022/08/24 00:49:37;;;;;;;1.40;1.30;;;;;;;;;;5083494;28;20211;-58
2022/08/24 00:52:28;;;;;;;1.30;1.30;;;;;;;;;;5088931;28;20362;-59
2022/08/24 00:55:22;;;;;;;0.87;0.87;;;;;;;;;;5084679;28;20218;-59
2022/08/24 00:58:15;;;;;;;1.27;1.17;;;;;;;;;;5077341;28;20213;-58
2022/08/24 01:01:06;;;;;;;1.07;1.07;;;;;;;;;;5085121;28;20206;-58
2022/08/24 01:03:53;;;;;;;1.47;1.37;;;;;;;;;;5086910;28;20226;-59
2022/08/24 01:06:41;;;;;;;1.07;1.07;;;;;;;;;;5077985;28;20730;-59
2022/08/24 01:09:28;;;;;;;1.00;1.00;;;;;;;;;;5078558;28;20597;-59
2022/08/24 01:12:16;;;;;;;1.27;1.20;;;;;;;;;;5077279;28;20219;-59
2022/08/24 01:15:07;;;;;;;1.10;1.10;;;;;;;;;;5081973;28;20211;-58
2022/08/24 01:21:14;;;;;;;1.40;1.30;;;;;;;;;;5083987;28;20244;-58
2022/08/24 01:24:05;;;;;;;1.20;1.20;;;;;;;;;;5072631;28;20216;-59
2022/08/24 01:26:51;;;;;;;1.30;1.30;;;;;;;;;;5082776;28;20713;-59
2022/08/24 01:29:40;;;;;;;1.20;1.20;;;;;;;;;;5084656;28;20205;-58
2022/08/24 01:32:27;;;;;;;1.00;1.00;;;;;;;;;;5084920;28;20209;-58
2022/08/24 01:35:14;;;;;;;1.23;1.23;;;;;;;;;;5078277;28;21050;-59
2022/08/24 01:38:06;;;;;;;1.10;1.10;;;;;;;;;;5081849;28;20218;-59
2022/08/24 01:40:58;;;;;;;1.30;1.20;;;;;;;;;;5079485;28;20215;-59
2022/08/24 01:43:45;;;;;;;1.10;1.00;;;;;;;;;;5084273;28;20210;-59
2022/08/24 01:46:32;;;;;;;1.30;1.20;;;;;;;;;;5080833;28;20427;-59
2022/08/24 01:49:20;;;;;;;0.73;0.73;;;;;;;;;;5080386;28;20206;-59
2022/08/24 01:52:10;;;;;;;1.07;1.07;;;;;;;;;;5079216;28;20204;-59
2022/08/24 01:54:58;;;;;;;1.10;1.10;;;;;;;;;;5083319;28;20207;-59
2022/08/24 01:57:46;;;;;;;1.20;1.10;;;;;;;;;;5083376;28;20212;-59
2022/08/24 02:00:35;;;;;;;1.10;1.10;;;;;;;;;;5078624;28;20203;-60
2022/08/24 02:03:23;;;;;;;1.47;0.90;;;;;;;;;;5081866;28;20728;-58
2022/08/24 02:06:10;;;;;;;0.80;0.73;;;;;;;;;;5077462;28;20714;-59
2022/08/24 02:08:57;;;;;;;1.03;0.93;;;;;;;;;;5083645;28;20606;-59
2022/08/24 02:11:44;;;;;;;0.80;0.80;;;;;;;;;;5072527;28;20220;-59
2022/08/24 02:14:32;;;;;;;1.07;1.07;;;;;;;;;;5081193;28;20212;-59
2022/08/24 02:17:19;;;;;;;1.10;1.10;;;;;;;;;;5076353;28;20201;-59
2022/08/24 02:20:07;;;;;;;1.10;1.00;;;;;;;;;;5081315;28;20210;-59
2022/08/24 02:22:55;;;;;;;0.83;0.83;;;;;;;;;;5077217;28;20668;-59
2022/08/24 02:25:42;;;;;;;0.90;0.90;;;;;;;;;;5084610;28;20571;-59
2022/08/24 02:28:29;;;;;;;1.03;1.00;;;;;;;;;;5081555;28;20226;-58
2022/08/24 02:31:18;;;;;;;1.10;1.10;;;;;;;;;;5081383;28;20218;-60
2022/08/24 02:34:05;;;;;;;1.20;1.20;;;;;;;;;;5084846;28;20209;-59
2022/08/24 02:36:53;;;;;;;1.03;1.03;;;;;;;;;;5079479;28;20289;-59
2022/08/24 02:39:40;;;;;;;1.07;1.07;;;;;;;;;;5083260;28;20241;-58
2022/08/24 02:42:28;;;;;;;1.50;1.13;;;;;;;;;;5081651;28;20680;-58
2022/08/24 02:45:15;;;;;;;0.87;0.87;;;;;;;;;;5081770;28;20751;-59
2022/08/24 02:48:04;;;;;;;1.23;1.03;;;;;;;;;;5081390;28;20224;-59
2022/08/24 02:50:51;;;;;;;0.90;0.90;;;;;;;;;;5081958;28;20581;-59
2022/08/24 02:53:38;;;;;;;0.97;0.90;;;;;;;;;;5081416;28;20215;-58
2022/08/24 02:56:28;;;;;;;1.00;1.00;;;;;;;;;;5075815;28;20217;-59
2022/08/24 02:59:16;;;;;;;0.97;0.97;;;;;;;;;;5087170;28;20291;-59
2022/08/24 03:02:04;;;;;;;1.13;1.10;;;;;;;;;;5085321;28;20276;-58
2022/08/24 03:04:52;;;;;;;0.80;0.80;;;;;;;;;;5085461;28;20239;-60
2022/08/24 03:07:40;;;;;;;0.83;0.83;;;;;;;;;;5092088;28;20221;-58
2022/08/24 03:10:27;;;;;;;1.17;1.17;;;;;;;;;;5085806;28;20603;-59
2022/08/24 03:13:14;;;;;;;1.03;1.03;;;;;;;;;;5087497;28;20232;-59
2022/08/24 03:16:01;;;;;;;1.00;1.00;;;;;;;;;;5086134;28;20230;-59
2022/08/24 03:18:49;;;;;;;0.90;0.90;;;;;;;;;;5077287;28;20195;-58
2022/08/24 03:21:37;;;;;;;0.90;0.90;;;;;;;;;;5084876;28;20324;-59
2022/08/24 03:24:24;;;;;;;0.90;0.90;;;;;;;;;;5083891;28;20230;-58
2022/08/24 03:27:12;;;;;;;0.90;0.90;;;;;;;;;;5077021;28;20728;-59
2022/08/24 03:30:00;;;;;;;0.93;0.93;;;;;;;;;;5085879;28;20206;-58
2022/08/24 03:32:47;;;;;;;0.93;0.93;;;;;;;;;;5081239;28;20209;-58
2022/08/24 03:35:34;;;;;;;0.60;0.60;;;;;;;;;;5078425;28;20205;-59
2022/08/24 03:38:22;;;;;;;2.43;0.93;;;;;;;;;;5079707;28;20288;-59
2022/08/24 03:41:09;;;;;;;0.83;0.83;;;;;;;;;;5086271;28;20574;-58
2022/08/24 03:43:56;;;;;;;1.83;1.10;;;;;;;;;;5084903;28;20212;-59
2022/08/24 03:46:44;;;;;;;0.60;0.60;;;;;;;;;;5080709;28;20676;-58
2022/08/24 03:49:31;;;;;;;0.90;0.90;;;;;;;;;;5085227;28;20242;-59
2022/08/24 03:52:17;;;;;;;1.00;1.00;;;;;;;;;;5082642;28;20248;-59
2022/08/24 03:55:07;;;;;;;1.00;1.00;;;;;;;;;;5078825;28;20209;-59
2022/08/24 03:57:54;;;;;;;0.73;0.73;;;;;;;;;;5081708;28;20209;-60
2022/08/24 04:00:42;;;;;;;0.80;0.80;;;;;;;;;;5079863;28;20220;-59
2022/08/24 04:03:29;;;;;;;0.97;0.90;;;;;;;;;;5083955;28;20259;-59
2022/08/24 04:06:18;;;;;;;1.00;1.00;;;;;;;;;;5077260;28;20291;-59
2022/08/24 04:09:06;;;;;;;0.80;0.80;;;;;;;;;;5081245;28;20235;-59
2022/08/24 04:11:54;;;;;;;0.93;0.93;;;;;;;;;;5088544;28;20220;-59
2022/08/24 04:14:41;;;;;;;0.73;0.73;;;;;;;;;;5088343;28;20206;-58
2022/08/24 04:17:29;;;;;;;1.00;0.90;;;;;;;;;;5082695;28;20739;-58
2022/08/24 04:20:16;;;;;;;1.00;0.90;;;;;;;;;;5084960;28;20206;-58
2022/08/24 04:23:03;;;;;;;0.80;0.80;;;;;;;;;;5081998;28;20612;-58
2022/08/24 04:25:50;;;;;;;1.13;1.00;;;;;;;;;;5080085;28;20692;-59
2022/08/24 04:28:38;;;;;;;1.00;1.00;;;;;;;;;;5077885;28;20233;-58
2022/08/24 04:31:26;;;;;;;0.87;0.87;;;;;;;;;;5082111;28;20203;-58
2022/08/24 04:34:14;;;;;;;0.70;0.70;;;;;;;;;;5078676;28;20553;-59
2022/08/24 04:37:01;;;;;;;0.97;0.97;;;;;;;;;;5082837;28;20206;-59
2022/08/24 04:39:48;;;;;;;1.10;1.00;;;;;;;;;;5084216;28;20213;-58
2022/08/24 04:42:36;;;;;;;0.87;0.87;;;;;;;;;;5079991;28;20201;-59
2022/08/24 04:45:24;;;;;;;0.80;0.80;;;;;;;;;;5084901;28;20203;-59
2022/08/24 04:48:13;;;;;;;1.10;1.10;;;;;;;;;;5085555;28;20602;-58
2022/08/24 04:51:02;;;;;;;0.60;0.60;;;;;;;;;;5080918;28;20210;-59
2022/08/24 04:53:51;;;;;;;0.90;0.90;;;;;;;;;;5082699;28;20235;-58
2022/08/24 04:56:38;;;;;;;1.77;0.97;;;;;;;;;;5082354;28;20214;-58
2022/08/24 04:59:25;;;;;;;1.00;1.00;;;;;;;;;;5084898;28;20211;-59
2022/08/24 05:02:13;;;;;;;1.30;1.20;;;;;;;;;;5085314;28;20271;-59
2022/08/24 05:05:00;;;;;;;1.33;1.10;;;;;;;;;;5078486;28;20244;-59
2022/08/24 05:07:47;;;;;;;0.70;0.70;;;;;;;;;;5079218;28;20227;-59
2022/08/24 05:10:34;;;;;;;0.80;0.80;;;;;;;;;;5078758;28;20199;-60
2022/08/24 05:13:21;;;;;;;1.00;1.00;;;;;;;;;;5079868;28;20210;-59
2022/08/24 05:16:10;;;;;;;0.70;0.70;;;;;;;;;;5085385;28;20556;-59
2022/08/24 05:18:59;;;;;;;0.97;0.97;;;;;;;;;;5080596;28;20687;-59
2022/08/24 05:21:46;;;;;;;0.80;0.80;;;;;;;;;;5082769;28;20283;-59
2022/08/24 05:24:33;;;;;;;0.80;0.80;;;;;;;;;;5082656;28;20200;-59
2022/08/24 05:27:20;;;;;;;0.90;0.90;;;;;;;;;;5087458;28;20742;-59
2022/08/24 05:30:08;;;;;;;1.13;1.10;;;;;;;;;;5079768;28;20217;-59
2022/08/24 05:32:55;;;;;;;0.90;0.90;;;;;;;;;;5084196;28;20206;-59
2022/08/24 05:35:43;;;;;;;0.80;0.80;;;;;;;;;;5078684;28;20215;-58
2022/08/24 05:38:31;;;;;;;0.87;0.87;;;;;;;;;;5081815;28;20206;-59
2022/08/24 05:41:19;;;;;;;1.10;1.00;;;;;;;;;;5075437;28;20233;-59
2022/08/24 05:44:07;;;;;;;0.80;0.80;;;;;;;;;;5074646;28;20388;-59
2022/08/24 05:46:56;;;;;;;0.80;0.80;;;;;;;;;;5078030;28;20207;-59
2022/08/24 05:49:44;;;;;;;0.80;0.80;;;;;;;;;;5082285;28;20284;-58
2022/08/24 05:52:34;;;;;;;0.90;0.90;;;;;;;;;;5077331;28;20255;-59
2022/08/24 05:55:21;;;;;;;1.23;0.90;;;;;;;;;;5079977;28;20196;-58
2022/08/24 05:58:08;;;;;;;0.73;0.70;;;;;;;;;;5075239;28;20243;-59
2022/08/24 06:00:55;;;;;;;0.77;0.77;;;;;;;;;;5080003;28;20269;-59
2022/08/24 06:03:42;;;;;;;1.10;1.00;;;;;;;;;;5082491;28;20624;-58
2022/08/24 06:06:30;;;;;;;0.80;0.80;;;;;;;;;;5081258;28;20240;-59
2022/08/24 06:09:18;;;;;;;0.90;0.90;;;;;;;;;;5077355;28;20238;-59
2022/08/24 06:12:07;;;;;;;0.87;0.83;;;;;;;;;;5059694;28;20293;-59
2022/08/24 06:14:54;;;;;;;0.80;0.77;;;;;;;;;;5062627;28;20212;-59
2022/08/24 06:17:41;;;;;;;0.80;0.80;;;;;;;;;;5059599;28;20214;-59
2022/08/24 06:20:28;;;;;;;1.30;1.20;;;;;;;;;;5062667;28;20261;-59
2022/08/24 06:23:15;;;;;;;1.27;0.93;;;;;;;;;;5060112;28;20239;-59
2022/08/24 06:29:09;;;;;;;0.80;0.80;;;;;;;;;;5062153;28;20368;-59
2022/08/24 06:31:56;;;;;;;0.90;0.90;;;;;;;;;;5059328;28;20213;-59
2022/08/24 06:34:43;;;;;;;0.80;0.80;;;;;;;;;;5078407;28;20216;-59
2022/08/24 06:37:30;;;;;;;0.85;0.80;;;;;;;;;;5079171;28;20595;-59
2022/08/24 06:40:19;;;;;;;1.83;1.08;;;;;;;;;;5081764;28;20212;-59
2022/08/24 06:43:07;;;;;;;0.82;0.80;;;;;;;;;;5075653;28;20206;-60
2022/08/24 06:45:55;;;;;;;0.70;0.70;;;;;;;;;;5077581;28;20213;-59
2022/08/24 06:48:43;;;;;;;0.93;0.93;;;;;;;;;;5079374;28;20231;-59
2022/08/24 06:51:31;;;;;;;0.70;0.70;;;;;;;;;;5084948;28;20290;-59
2022/08/24 06:54:19;;;;;;;0.90;0.85;;;;;;;;;;5080064;28;20256;-59
2022/08/24 06:57:07;;;;;;;0.88;0.88;;;;;;;;;;5076526;28;20207;-59
2022/08/24 06:59:55;;;;;;;0.70;0.70;;;;;;;;;;5078805;28;20210;-59
2022/08/24 07:02:42;;;;;;;0.75;0.75;;;;;;;;;;5058030;28;20199;-59
2022/08/24 07:05:29;;;;;;;1.02;0.88;;;;;;;;;;5060016;28;20235;-59
2022/08/24 07:08:16;;;;;;;1.05;0.80;;;;;;;;;;5077979;28;20226;-59
2022/08/24 07:11:04;;;;;;;0.77;0.77;;;;;;;;;;5081012;28;20624;-59
2022/08/24 07:13:51;;;;;;;0.55;0.55;;;;;;;;;;5078187;28;20290;-59
2022/08/24 07:16:39;;;;;;;0.93;0.85;;;;;;;;;;5082105;28;20211;-59
2022/08/24 07:19:26;;;;;;;0.57;0.57;;;;;;;;;;5075979;28;20555;-57
2022/08/24 07:22:13;;;;;;;0.80;0.80;;;;;;;;;;5073537;28;20202;-57
2022/08/24 07:25:00;;;;;;;0.70;0.70;;;;;;;;;;5072919;28;20211;-58
2022/08/24 07:27:48;;;;;;;0.73;0.73;;;;;;;;;;5078630;28;20202;-57
2022/08/24 07:30:35;;;;;;;0.60;0.60;;;;;;;;;;5081562;28;20202;-57
2022/08/24 07:33:23;;;;;;;0.50;0.50;;;;;;;;;;5083164;28;20236;-57
2022/08/24 07:36:10;;;;;;;0.50;0.50;;;;;;;;;;5058514;28;20211;-58
2022/08/24 07:38:57;;;;;;;0.85;0.50;;;;;;;;;;5080890;28;20212;-58
2022/08/24 07:41:45;;;;;;;0.60;0.60;;;;;;;;;;5079954;28;20199;-58
2022/08/24 07:44:32;;;;;;;0.70;0.70;;;;;;;;;;5084624;28;20237;-57
2022/08/24 07:47:20;;;;;;;0.50;0.50;;;;;;;;;;5084527;28;20203;-58
2022/08/24 07:50:09;;;;;;;0.63;0.60;;;;;;;;;;5076737;28;20227;-58
2022/08/24 07:52:56;;;;;;;0.60;0.60;;;;;;;;;;5078732;28;20208;-58
2022/08/24 07:55:51;;;;;;;0.75;0.63;;;;;;;;;;5079974;28;20247;-58
2022/08/24 07:58:38;;;;;;;0.68;0.50;;;;;;;;;;5080504;28;20198;-58
2022/08/24 08:01:25;;;;;;;0.60;0.60;;;;;;;;;;5078461;28;20651;-59
2022/08/24 08:04:14;;;;;;;0.75;0.75;;;;;;;;;;5079053;28;20211;-58
2022/08/24 08:07:03;;;;;;;0.52;0.52;;;;;;;;;;5080901;28;20250;-58
2022/08/24 08:09:49;;;;;;;0.70;0.70;;;;;;;;;;5082936;28;20234;-58
2022/08/24 08:12:37;;;;;;;0.50;0.50;;;;;;;;;;5084038;28;20720;-57
2022/08/24 08:15:24;;;;;;;0.60;0.60;;;;;;;;;;5081609;28;20208;-58
2022/08/24 08:18:12;;;;;;;0.63;0.63;;;;;;;;;;5081110;28;20559;-58
2022/08/24 08:21:00;;;;;;;0.60;0.60;;;;;;;;;;5082243;28;20236;-58
2022/08/24 08:26:53;;;;;;;0.70;0.70;;;;;;;;;;5084120;28;20202;-57
2022/08/24 08:29:41;;;;;;;0.50;0.50;;;;;;;;;;5075579;28;20223;-57
2022/08/24 08:32:30;;;;;;;0.85;0.80;;;;;;;;;;5076727;28;20253;-58
2022/08/24 08:35:18;;;;;;;0.57;0.57;;;;;;;;;;5081389;28;20202;-57
2022/08/24 08:38:06;;;;;;;0.70;0.70;;;;;;;;;;5078473;28;20230;-57
2022/08/24 08:41:07;;;;;;;0.70;0.70;;;;;;;;;;5078927;28;20198;-57
2022/08/24 08:44:00;;;;;;;0.60;0.60;;;;;;;;;;5079235;28;20207;-58
2022/08/24 08:47:01;;;;;;;0.68;0.68;;;;;;;;;;5083013;28;20203;-58
2022/08/24 08:50:07;;;;;;;0.63;0.63;;;;;;;;;;5084176;28;20689;-57
2022/08/24 08:53:17;;;;;;;1.10;0.63;;;;;;;;;;5078689;28;20199;-58
2022/08/24 08:56:15;;;;;;;0.50;0.50;;;;;;;;;;5078069;28;20722;-58
2022/08/24 08:59:10;;;;;;;0.47;0.47;;;;;;;;;;5080702;28;20564;-58
2022/08/24 09:02:14;;;;;;;0.55;0.55;;;;;;;;;;5080735;28;20236;-59
2022/08/24 09:05:26;;;;;;;0.60;0.60;;;;;;;;;;5081605;28;20251;-58
2022/08/24 09:08:24;;;;;;;0.40;0.40;;;;;;;;;;5078218;28;20349;-59
2022/08/24 09:11:19;;;;;;;0.77;0.77;;;;;;;;;;5081307;28;20576;-59
2022/08/24 09:14:39;;;;;;;0.50;0.50;;;;;;;;;;5082451;28;20705;-58
2022/08/24 09:17:36;;;;;;;0.55;0.52;;;;;;;;;;5084581;28;20208;-58
2022/08/24 09:20:43;;;;;;;0.50;0.50;;;;;;;;;;5081942;28;20318;-58
2022/08/24 09:23:39;;;;;;;0.60;0.60;;;;;;;;;;5085149;28;20600;-57
2022/08/24 09:26:31;;;;;;;0.45;0.45;;;;;;;;;;5077348;28;20243;-58
2022/08/24 09:29:29;;;;;;;0.70;0.70;;;;;;;;;;5060775;28;20228;-58
2022/08/24 09:32:34;;;;;;;0.50;0.50;;;;;;;;;;5061647;28;20813;-59
2022/08/24 09:35:31;;;;;;;0.77;0.77;;;;;;;;;;5063432;28;20211;-59
2022/08/24 09:38:24;;;;;;;0.50;0.50;;;;;;;;;;5058821;28;20207;-58
2022/08/24 09:41:30;;;;;;;0.55;0.55;;;;;;;;;;5060888;28;20203;-58
2022/08/24 09:44:45;;;;;;;0.65;0.65;;;;;;;;;;5078918;28;20216;-59
2022/08/24 09:48:04;;;;;;;0.77;0.77;;;;;;;;;;5076140;28;20593;-58
2022/08/24 09:51:08;;;;;;;0.45;0.45;;;;;;;;;;5081799;28;20223;-58
2022/08/24 09:54:23;;;;;;;0.52;0.52;;;;;;;;;;5078702;28;20242;-59
2022/08/24 09:57:35;;;;;;;0.57;0.57;;;;;;;;;;5074058;28;20213;-58
2022/08/24 10:00:28;;;;;;;1.38;0.73;;;;;;;;;;5087017;28;20300;-58
2022/08/24 10:03:28;;;;;;;0.55;0.55;;;;;;;;;;5078078;28;20256;-58
2022/08/24 10:06:26;;;;;;;0.52;0.52;;;;;;;;;;5078175;28;20249;-58
2022/08/24 10:09:36;;;;;;;0.60;0.60;;;;;;;;;;5084513;28;20238;-58
2022/08/24 10:12:38;;;;;;;0.60;0.60;;;;;;;;;;5081794;28;20210;-59
2022/08/24 10:15:32;;;;;;;0.60;0.60;;;;;;;;;;5086656;28;20233;-58
2022/08/24 10:18:35;;;;;;;0.40;0.40;;;;;;;;;;5082406;28;20662;-58
2022/08/24 10:21:37;;;;;;;0.82;0.60;;;;;;;;;;5083030;28;20221;-59
2022/08/24 10:24:46;;;;;;;0.80;0.80;;;;;;;;;;5079894;28;20284;-59
2022/08/24 10:27:52;;;;;;;0.52;0.52;;;;;;;;;;5081858;28;20214;-58
2022/08/24 10:31:01;;;;;;;1.02;0.65;;;;;;;;;;5074933;28;20266;-59
2022/08/24 10:34:02;;;;;;;0.52;0.52;;;;;;;;;;5083559;28;20572;-58
2022/08/24 10:37:09;;;;;;;0.55;0.50;;;;;;;;;;5075370;28;20572;-58
2022/08/24 10:40:15;;;;;;;0.50;0.50;;;;;;;;;;5079485;28;20210;-58
2022/08/24 10:43:34;;;;;;;0.50;0.50;;;;;;;;;;5081274;28;20206;-59
2022/08/24 10:46:39;;;;;;;0.70;0.70;;;;;;;;;;5083335;28;20214;-58
2022/08/24 10:49:58;;;;;;;0.47;0.47;;;;;;;;;;5080936;28;20230;-59
2022/08/24 10:53:03;;;;;;;0.50;0.50;;;;;;;;;;5087052;28;20232;-58
2022/08/24 10:56:03;;;;;;;0.50;0.50;;;;;;;;;;5079003;28;20222;-58
2022/08/24 10:58:56;;;;;;;0.63;0.63;;;;;;;;;;5074165;28;20249;-58
2022/08/24 11:02:01;;;;;;;0.60;0.60;;;;;;;;;;5080443;28;20576;-58
2022/08/24 11:04:56;;;;;;;0.73;0.73;;;;;;;;;;5081812;28;20690;-59
2022/08/24 11:07:58;;;;;;;0.63;0.63;;;;;;;;;;5076242;28;20203;-58
2022/08/24 11:10:45;;;;;;;0.50;0.50;;;;;;;;;;5079445;28;20694;-59
2022/08/24 11:13:35;;;;;;;0.80;0.80;;;;;;;;;;5084518;28;20339;-59
2022/08/24 11:16:29;;;;;;;0.45;0.45;;;;;;;;;;5077600;28;20203;-59
2022/08/24 11:19:30;;;;;;;0.75;0.65;;;;;;;;;;5075660;28;20646;-59
2022/08/24 11:22:43;;;;;;;0.77;0.77;;;;;;;;;;5082959;28;20212;-59
2022/08/24 11:25:33;;;;;;;0.40;0.40;;;;;;;;;;5085212;28;20214;-59
2022/08/24 11:28:25;;;;;;;0.50;0.50;;;;;;;;;;5084737;28;20400;-59
2022/08/24 11:31:19;;;;;;;0.68;0.57;;;;;;;;;;5086883;28;20303;-59
2022/08/24 11:34:09;;;;;;;0.35;0.35;;;;;;;;;;5086713;28;20199;-59
2022/08/24 11:36:58;;;;;;;0.80;0.80;;;;;;;;;;5089023;28;20203;-59
2022/08/24 11:39:45;;;;;;;0.50;0.50;;;;;;;;;;5082090;28;20564;-59
2022/08/24 11:42:43;;;;;;;0.43;0.43;;;;;;;;;;5085025;28;20257;-59
2022/08/24 11:45:36;;;;;;;0.68;0.68;;;;;;;;;;5083567;28;20210;-59
2022/08/24 11:48:34;;;;;;;0.70;0.70;;;;;;;;;;5080097;28;20557;-60
2022/08/24 11:51:31;;;;;;;0.73;0.73;;;;;;;;;;5080408;28;20325;-59
2022/08/24 11:54:27;;;;;;;0.57;0.57;;;;;;;;;;5083845;28;20317;-59
2022/08/24 11:57:18;;;;;;;0.60;0.60;;;;;;;;;;5077414;28;20231;-58
2022/08/24 12:00:08;;;;;;;0.88;0.88;;;;;;;;;;5083545;28;20281;-59
2022/08/24 12:03:02;;;;;;;0.85;0.70;;;;;;;;;;5085566;28;20214;-59
2022/08/24 12:05:57;;;;;;;0.57;0.57;;;;;;;;;;5086734;28;20238;-59
2022/08/24 12:08:49;;;;;;;0.50;0.50;;;;;;;;;;5086875;28;20214;-59
2022/08/24 12:11:45;;;;;;;0.63;0.63;;;;;;;;;;5079159;28;20573;-59
2022/08/24 12:14:38;;;;;;;0.50;0.50;;;;;;;;;;5081207;28;20207;-59
2022/08/24 12:17:33;;;;;;;0.60;0.60;;;;;;;;;;5079591;28;20290;-59
2022/08/24 12:20:30;;;;;;;0.68;0.68;;;;;;;;;;5078363;28;20199;-59
2022/08/24 12:23:24;;;;;;;0.60;0.60;;;;;;;;;;5082703;28;20211;-59
2022/08/24 12:26:17;;;;;;;0.52;0.52;;;;;;;;;;5077693;28;20203;-59
2022/08/24 12:29:10;;;;;;;0.40;0.40;;;;;;;;;;5081061;28;20210;-59
2022/08/24 12:32:03;;;;;;;0.85;0.75;;;;;;;;;;5085301;28;20684;-59
2022/08/24 12:34:56;;;;;;;0.55;0.55;;;;;;;;;;5081362;28;20265;-59
2022/08/24 12:37:48;;;;;;;0.65;0.60;;;;;;;;;;5082846;28;20737;-59
2022/08/24 12:40:40;;;;;;;0.40;0.40;;;;;;;;;;5072847;28;20708;-60
2022/08/24 12:43:31;;;;;;;0.70;0.70;;;;;;;;;;5074267;28;20618;-59
2022/08/24 12:46:24;;;;;;;0.50;0.50;;;;;;;;;;5075926;28;20341;-59
2022/08/24 12:49:18;;;;;;;0.77;0.70;;;;;;;;;;5075247;28;20666;-59
2022/08/24 12:52:31;;;;;;;0.60;0.60;;;;;;;;;;5079001;28;20219;-59
2022/08/24 12:55:31;;;;;;;0.45;0.45;;;;;;;;;;5078102;28;20219;-59
2022/08/24 12:58:37;;;;;;;0.63;0.63;;;;;;;;;;5078828;28;20199;-59
2022/08/24 13:01:32;;;;;;;0.55;0.55;;;;;;;;;;5079642;28;20249;-59
2022/08/24 13:04:34;;;;;;;0.52;0.52;;;;;;;;;;5080003;28;20336;-59
2022/08/24 13:07:28;;;;;;;0.63;0.63;;;;;;;;;;5078864;28;20635;-59
2022/08/24 13:10:37;;;;;;;1.05;0.60;;;;;;;;;;5079446;28;20302;-59
2022/08/24 13:13:43;;;;;;;0.40;0.40;;;;;;;;;;5082666;28;20666;-59
2022/08/24 13:17:07;;;;;;;0.63;0.63;;;;;;;;;;5078976;28;20780;-59
2022/08/24 13:20:16;;;;;;;0.77;0.77;;;;;;;;;;5077706;28;20679;-59
2022/08/24 13:23:14;;;;;;;0.68;0.68;;;;;;;;;;5082475;28;20218;-59
2022/08/24 13:26:22;;;;;;;0.60;0.60;;;;;;;;;;5078528;28;20224;-58
2022/08/24 13:29:09;;;;;;;0.47;0.47;;;;;;;;;;5086281;28;20207;-59
2022/08/24 13:31:59;;;;;;;1.75;0.50;;;;;;;;;;5084729;28;20218;-58
2022/08/24 13:34:49;;;;;;;0.60;0.60;;;;;;;;;;5083577;28;20278;-59
2022/08/24 13:37:37;;;;;;;0.50;0.50;;;;;;;;;;5079700;28;20697;-59
2022/08/24 13:40:26;;;;;;;0.50;0.50;;;;;;;;;;5082509;28;20210;-59
2022/08/24 13:43:23;;;;;;;0.63;0.63;;;;;;;;;;5078430;28;20210;-59
2022/08/24 13:46:18;;;;;;;0.70;0.70;;;;;;;;;;5078607;28;20544;-59
2022/08/24 13:49:21;;;;;;;0.60;0.60;;;;;;;;;;5079725;28;20202;-59
2022/08/24 13:52:17;;;;;;;0.70;0.70;;;;;;;;;;5079655;28;20207;-59
2022/08/24 13:55:28;;;;;;;0.60;0.60;;;;;;;;;;5082920;28;20207;-59
2022/08/24 13:58:34;;;;;;;0.80;0.80;;;;;;;;;;5079841;28;20210;-59
2022/08/24 14:01:29;;;;;;;1.08;1.02;;;;;;;;;;5078954;28;20202;-59
2022/08/24 14:04:44;;;;;;;0.52;0.52;;;;;;;;;;5080674;28;20275;-59
2022/08/24 14:07:43;;;;;;;0.57;0.57;;;;;;;;;;5076910;28;20740;-59
2022/08/24 14:10:42;;;;;;;0.80;0.80;;;;;;;;;;5075760;28;20237;-59
2022/08/24 14:13:41;;;;;;;0.80;0.80;;;;;;;;;;5080168;28;20210;-59
2022/08/24 14:19:54;;;;;;;0.65;0.65;;;;;;;;;;5080978;28;20649;-59
2022/08/24 14:22:59;;;;;;;0.63;0.63;;;;;;;;;;5079278;28;20207;-59
2022/08/24 14:25:48;;;;;;;0.80;0.80;;;;;;;;;;5080700;28;20207;-59
2022/08/24 14:28:39;;;;;;;0.82;0.77;;;;;;;;;;5081913;28;20283;-58
2022/08/24 14:31:28;;;;;;;1.08;0.93;;;;;;;;;;5073855;28;20227;-59
2022/08/24 14:34:24;;;;;;;0.90;0.90;;;;;;;;;;5077203;28;20207;-59
2022/08/24 14:37:21;;;;;;;0.73;0.73;;;;;;;;;;5075023;28;20381;-59
2022/08/24 14:40:23;;;;;;;0.60;0.60;;;;;;;;;;5075904;28;20238;-59
2022/08/24 14:43:24;;;;;;;1.00;1.00;;;;;;;;;;5077685;28;20280;-59
2022/08/24 14:46:21;;;;;;;1.20;1.05;;;;;;;;;;5075919;28;20299;-59
2022/08/24 14:49:16;;;;;;;1.27;1.10;;;;;;;;;;5078020;28;20687;-59
2022/08/24 14:52:39;;;;;;;2.05;0.93;;;;;;;;;;5079313;28;20222;-59
2022/08/24 14:55:34;;;;;;;1.52;1.40;;;;;;;;;;5080725;28;20199;-59
2022/08/24 14:58:32;;;;;;;1.50;1.40;;;;;;;;;;5085206;28;20206;-59
2022/08/24 15:01:39;;;;;;;1.75;1.65;;;;;;;;;;5077205;28;20210;-59
2022/08/24 15:04:38;;;;;;;1.67;1.58;;;;;;;;;;5084385;28;20674;-59
2022/08/24 15:07:30;;;;;;;2.20;2.00;;;;;;;;;;5077084;28;20238;-59
2022/08/24 15:10:23;;;;;;;1.33;1.33;;;;;;;;;;5079596;28;20281;-59
2022/08/24 15:13:25;;;;;;;1.40;1.30;;;;;;;;;;5080728;28;20206;-59
2022/08/24 15:16:17;;;;;;;1.90;1.80;;;;;;;;;;5083637;28;20255;-59
2022/08/24 15:19:13;;;;;;;1.70;1.60;;;;;;;;;;5086061;28;20229;-59
2022/08/24 15:22:03;;;;;;;1.88;1.77;;;;;;;;;;5062468;28;20207;-59
2022/08/24 15:24:57;;;;;;;1.98;1.63;;;;;;;;;;5063046;28;20286;-59
2022/08/24 15:27:50;;;;;;;1.90;1.80;;;;;;;;;;5081521;28;20442;-59
2022/08/24 15:30:40;;;;;;;1.73;1.63;;;;;;;;;;5083742;28;20262;-60
2022/08/24 15:33:29;;;;;;;1.98;1.77;;;;;;;;;;5082497;28;20201;-60
2022/08/24 15:36:17;;;;;;;1.80;1.70;;;;;;;;;;5083686;28;20619;-60
2022/08/24 15:39:06;;;;;;;2.20;2.08;;;;;;;;;;5082873;28;20216;-59
2022/08/24 15:41:55;;;;;;;1.70;1.60;;;;;;;;;;5077492;28;20213;-59
2022/08/24 15:44:46;;;;;;;1.70;1.60;;;;;;;;;;5084396;28;20217;-59
2022/08/24 15:47:35;;;;;;;1.90;1.80;;;;;;;;;;5084804;28;20199;-59
2022/08/24 15:50:27;;;;;;;1.90;1.80;;;;;;;;;;5077461;28;20945;-59
2022/08/24 15:53:32;;;;;;;1.95;1.85;;;;;;;;;;5083351;28;20496;-59
2022/08/24 15:56:34;;;;;;;1.70;1.60;;;;;;;;;;5076493;28;20211;-59
2022/08/24 15:59:27;;;;;;;2.00;1.90;;;;;;;;;;5081696;28;20209;-59
2022/08/24 16:02:27;;;;;;;1.85;1.75;;;;;;;;;;5079458;28;20238;-59
2022/08/24 16:05:20;;;;;;;2.30;1.95;;;;;;;;;;5079280;28;20230;-59
2022/08/24 16:08:12;;;;;;;1.80;1.70;;;;;;;;;;5082845;28;20221;-59
2022/08/24 16:11:19;;;;;;;1.85;1.75;;;;;;;;;;5083051;28;20224;-60
2022/08/24 16:14:10;;;;;;;1.95;1.80;;;;;;;;;;5079596;28;20260;-59
2022/08/24 16:17:00;;;;;;;1.40;1.33;;;;;;;;;;5079965;28;20579;-60
2022/08/24 16:19:51;;;;;;;1.90;1.80;;;;;;;;;;5087399;28;20572;-59
2022/08/24 16:22:49;;;;;;;1.80;1.70;;;;;;;;;;5078616;28;20290;-60
2022/08/24 16:25:38;;;;;;;1.73;1.63;;;;;;;;;;5079048;28;20688;-59
2022/08/24 16:28:36;;;;;;;1.90;1.80;;;;;;;;;;5056022;28;20329;-60
2022/08/24 16:31:47;;;;;;;1.67;1.58;;;;;;;;;;5061560;28;20226;-59
2022/08/24 16:34:36;;;;;;;1.73;1.65;;;;;;;;;;5081337;28;20343;-59
2022/08/24 16:37:24;;;;;;;1.85;1.75;;;;;;;;;;5082895;28;20681;-60
2022/08/24 16:40:11;;;;;;;1.90;1.80;;;;;;;;;;5083128;28;20208;-59
2022/08/24 16:42:58;;;;;;;2.17;2.00;;;;;;;;;;5082629;28;20202;-59
2022/08/24 16:45:45;;;;;;;1.98;1.88;;;;;;;;;;5082483;28;20207;-59
2022/08/24 16:48:33;;;;;;;1.85;1.75;;;;;;;;;;5082007;28;20208;-60
2022/08/24 16:51:23;;;;;;;1.90;1.65;;;;;;;;;;5078719;28;20223;-59
2022/08/24 16:54:10;;;;;;;1.95;1.85;;;;;;;;;;5082519;28;20205;-60
2022/08/24 16:56:58;;;;;;;2.30;2.10;;;;;;;;;;5076833;28;20235;-60
2022/08/24 16:59:47;;;;;;;1.80;1.70;;;;;;;;;;5077477;28;20337;-59
2022/08/24 17:02:34;;;;;;;1.73;1.63;;;;;;;;;;5077080;28;20615;-59
2022/08/24 17:05:22;;;;;;;1.80;1.70;;;;;;;;;;5079232;28;20305;-59
2022/08/24 17:08:11;;;;;;;1.83;1.73;;;;;;;;;;5082806;28;20207;-59
2022/08/24 17:10:58;;;;;;;1.77;1.67;;;;;;;;;;5079391;28;20304;-59
2022/08/24 17:13:46;;;;;;;1.45;1.45;;;;;;;;;;5082186;28;20670;-59
2022/08/24 17:16:33;;;;;;;1.90;1.80;;;;;;;;;;5077094;28;20501;-59
2022/08/24 17:19:20;;;;;;;1.85;1.75;;;;;;;;;;5086174;28;20218;-59
2022/08/24 17:22:08;;;;;;;1.80;1.70;;;;;;;;;;5072952;28;20739;-60
2022/08/24 17:24:56;;;;;;;1.63;1.60;;;;;;;;;;5085174;28;20752;-59
2022/08/24 17:27:43;;;;;;;1.80;1.70;;;;;;;;;;5085489;28;20218;-59